Hovedside
METAR-TAF:

METAR-TAF

Lufthavner :

Karlstad lufthavn

Karlstad, Sverige

breddegrad: 59-26-41N, lengdegrad: 013-20-15E, høyde over havet: 107 m

Gjeldene værobservasjon

Denne rapporten ble laget for 13 minutter siden, klokken 01:20 UTC
Vind 9 kt fra Nord
Temperatur 1°C
Luftfuktighet 93%
Trykk 1011 hPa
Sikt 10 km eller mer

METAR: ESOK 110120Z AUTO 35009KT 9999 SCT055/// BKN100/// 01/M00 Q1011

Tid: 02:33 (01:33 UTC)

Varsel

Denne rapporten ble laget for 8 timer og 3 minutter siden, klokken 17:30 UTC
Varsel gyldig fra 10. klokken 18 UTC til 10. klokken 22 UTC
Vind 10 kt fra Nord-nordvest
Sikt 10 km eller mer
Brutte skyer i en høyde av 1200 ft
Sannsynlighet 40%
fra 10. klokken 18 UTC til 10. klokken 19 UTC
Sikt: 4000 m
Brutte skyer i en høyde av 2000 ft
lett regn, snø
Blir
fra 10. klokken 18 UTC til 10. klokken 20 UTC
Få skyer i en høyde av 2000 ft

TAF: ESOK 101730Z 1018/1022 34010KT 9999 BKN012 PROB40 1018/1019 4000 -RASN BKN020 BECMG 1018/1020 FEW020

Værobservasjoner og værvarsel for over 4000 flyplasser (METAR- og TAF-rapporter).

Tilgjengelige stasjoner er representert av de røde og gule prikkene på kartet.

Hold musepekeren over prikken for å se navnet på stasjonen.

Klikk så for å se værobservasjoner og -varsler.

For å forandre kartet kan du klikke på den grønne knappen med svart kryss for å zoome inn, på den grønne knappen med strek for å zoome ut, eller på de grønne pilene for å se tilstøtende kart.


METAR-TAF: